Time;durP1;ratioP1;P1;durP2;ratioP2;P2;SDS_P1;SDS_P2;PMS_P1;PMS_P2;Temp;Humidity;BMP_temperature;BMP_pressure;BME280_temperature;BME280_humidity;BME280_pressure;Samples;Min_cycle;Max_cycle;Signal;HPM_P1;HPM_P2
2021/09/01 00:00:20;;;;;;;6.10;2.50;;;17.10;99.90;;;;;;6277144;22;20175;-74
2021/09/01 00:02:48;;;;;;;7.33;2.20;;;17.20;99.90;;;;;;6276797;22;20201;-74
2021/09/01 00:05:15;;;;;;;4.50;2.33;;;17.20;99.90;;;;;;6276757;22;20179;-75
2021/09/01 00:07:42;;;;;;;8.17;2.80;;;17.20;99.90;;;;;;6276540;22;20719;-74
2021/09/01 00:10:10;;;;;;;5.43;2.13;;;16.90;99.90;;;;;;6277251;22;20664;-74
2021/09/01 00:12:38;;;;;;;5.23;2.00;;;16.80;99.90;;;;;;6276958;22;20199;-74
2021/09/01 00:15:06;;;;;;;3.80;1.93;;;16.90;99.90;;;;;;6277043;22;20262;-74
2021/09/01 00:17:35;;;;;;;4.37;1.60;;;17.00;99.90;;;;;;6276807;22;20683;-73
2021/09/01 00:20:05;;;;;;;5.10;1.60;;;16.90;99.90;;;;;;6277063;22;20179;-74
2021/09/01 00:22:31;;;;;;;6.10;2.53;;;16.80;99.90;;;;;;6276715;22;20195;-75
2021/09/01 00:24:58;;;;;;;4.43;1.80;;;16.50;99.90;;;;;;6276796;22;20648;-74
2021/09/01 00:27:25;;;;;;;4.70;1.90;;;16.50;99.90;;;;;;6278261;22;20174;-76
2021/09/01 00:29:52;;;;;;;6.23;1.40;;;16.60;99.90;;;;;;6278949;22;20175;-74
2021/09/01 00:32:18;;;;;;;6.73;1.63;;;16.50;99.90;;;;;;6278499;22;20175;-75
2021/09/01 00:34:45;;;;;;;5.07;1.90;;;16.50;99.90;;;;;;6277228;22;20652;-75
2021/09/01 00:37:13;;;;;;;8.70;2.00;;;16.60;99.90;;;;;;6276379;22;20206;-75
2021/09/01 00:39:40;;;;;;;6.93;1.60;;;16.70;99.90;;;;;;6276309;22;20178;-74
2021/09/01 00:42:07;;;;;;;4.80;2.50;;;16.80;99.90;;;;;;6276706;22;20480;-74
2021/09/01 00:44:35;;;;;;;5.30;1.77;;;16.90;99.90;;;;;;6276913;22;20175;-76
2021/09/01 00:47:03;;;;;;;2.40;1.70;;;16.80;99.90;;;;;;6276864;22;20175;-75
2021/09/01 00:49:30;;;;;;;5.20;1.80;;;16.80;99.90;;;;;;6276822;22;20175;-74
2021/09/01 00:51:58;;;;;;;4.53;1.40;;;16.80;99.90;;;;;;6276849;22;20493;-74
2021/09/01 00:54:28;;;;;;;4.77;1.20;;;16.70;99.90;;;;;;6276656;22;20195;-75
2021/09/01 00:56:56;;;;;;;7.30;1.80;;;16.70;99.90;;;;;;6275902;22;20213;-74
2021/09/01 00:59:25;;;;;;;4.53;1.50;;;16.60;99.90;;;;;;6275927;22;20175;-75
2021/09/01 01:01:52;;;;;;;3.40;1.30;;;16.70;99.90;;;;;;6276511;22;20175;-74
2021/09/01 01:04:19;;;;;;;3.00;1.47;;;16.80;99.90;;;;;;6275941;22;20203;-75
2021/09/01 01:06:45;;;;;;;4.00;1.47;;;16.80;99.90;;;;;;6276592;22;20205;-74
2021/09/01 01:09:13;;;;;;;6.90;1.33;;;16.80;99.90;;;;;;6276406;22;20625;-74
2021/09/01 01:11:59;;;;;;;2.60;1.40;;;16.80;99.90;;;;;;6276670;22;20193;-74
2021/09/01 01:14:27;;;;;;;4.60;1.27;;;16.70;99.90;;;;;;6276553;22;20201;-76
2021/09/01 01:16:53;;;;;;;2.37;1.20;;;16.50;99.90;;;;;;6276650;22;20206;-75
2021/09/01 01:19:21;;;;;;;4.20;1.10;;;16.60;99.90;;;;;;6276726;22;20174;-74
2021/09/01 01:21:48;;;;;;;5.07;1.50;;;16.80;99.90;;;;;;6276313;22;20175;-75
2021/09/01 01:24:15;;;;;;;5.20;1.37;;;17.00;99.90;;;;;;6276454;22;20277;-75
2021/09/01 01:26:43;;;;;;;2.53;1.27;;;17.10;99.90;;;;;;6276216;22;20175;-74
2021/09/01 01:29:11;;;;;;;4.57;1.37;;;17.00;99.90;;;;;;6276671;22;20175;-74
2021/09/01 01:31:38;;;;;;;7.00;1.70;;;16.80;99.90;;;;;;6276461;22;20175;-75
2021/09/01 01:34:11;;;;;;;6.93;1.47;;;16.50;99.90;;;;;;6276172;22;20201;-73
2021/09/01 01:36:38;;;;;;;5.93;1.33;;;16.60;99.90;;;;;;6276251;22;20220;-74
2021/09/01 01:39:05;;;;;;;5.73;1.50;;;16.60;99.90;;;;;;6276459;22;20257;-73
2021/09/01 01:41:32;;;;;;;4.33;1.50;;;16.60;99.90;;;;;;6275930;22;20498;-74
2021/09/01 01:44:00;;;;;;;4.57;1.60;;;16.80;99.90;;;;;;6276288;22;20194;-74
2021/09/01 01:46:26;;;;;;;4.20;1.47;;;16.80;99.90;;;;;;6276395;22;20181;-74
2021/09/01 01:48:53;;;;;;;2.77;1.20;;;16.60;99.90;;;;;;6276393;22;20181;-74
2021/09/01 01:51:20;;;;;;;4.53;1.37;;;16.60;99.90;;;;;;6276478;22;20175;-75
2021/09/01 01:53:47;;;;;;;3.77;1.53;;;16.50;99.90;;;;;;6276270;22;20195;-75
2021/09/01 01:56:14;;;;;;;4.33;1.40;;;16.40;99.90;;;;;;6276536;22;20175;-76
2021/09/01 01:58:40;;;;;;;5.43;1.43;;;16.40;99.90;;;;;;6276355;22;20207;-74
2021/09/01 02:01:09;;;;;;;4.07;1.70;;;16.50;99.90;;;;;;6276383;22;20185;-74
2021/09/01 02:03:35;;;;;;;4.67;1.77;;;16.60;99.90;;;;;;6276873;22;20195;-75
2021/09/01 02:06:02;;;;;;;2.60;1.50;;;16.90;99.90;;;;;;6276284;22;20183;-74
2021/09/01 02:08:29;;;;;;;2.00;1.20;;;16.90;99.90;;;;;;6276000;22;20633;-74
2021/09/01 02:10:56;;;;;;;3.30;1.17;;;16.80;99.90;;;;;;6276838;22;20175;-73
2021/09/01 02:13:22;;;;;;;5.73;1.53;;;16.80;99.90;;;;;;6276495;22;20199;-74
2021/09/01 02:15:49;;;;;;;4.17;1.80;;;16.80;99.90;;;;;;6276920;22;20175;-73
2021/09/01 02:18:17;;;;;;;3.50;1.40;;;17.00;99.90;;;;;;6278549;22;20206;-74
2021/09/01 02:20:44;;;;;;;3.30;1.30;;;17.10;99.90;;;;;;6278360;22;20269;-74
2021/09/01 02:23:11;;;;;;;3.60;1.33;;;17.10;99.90;;;;;;6277920;22;20277;-74
2021/09/01 02:25:38;;;;;;;5.50;1.47;;;17.00;99.90;;;;;;6278318;22;20183;-74
2021/09/01 02:28:05;;;;;;;3.67;1.53;;;17.10;99.90;;;;;;6277912;22;20629;-74
2021/09/01 02:30:31;;;;;;;4.17;1.60;;;17.10;99.90;;;;;;6278176;22;20175;-75
2021/09/01 02:32:58;;;;;;;6.13;1.80;;;17.00;99.90;;;;;;6277972;22;20278;-74
2021/09/01 02:35:26;;;;;;;6.63;2.13;;;17.00;99.90;;;;;;6277773;22;20664;-75
2021/09/01 02:37:53;;;;;;;5.87;1.40;;;16.90;99.90;;;;;;6278018;22;20203;-74
2021/09/01 02:40:20;;;;;;;4.60;1.47;;;16.70;99.90;;;;;;6277564;22;20702;-74
2021/09/01 02:42:47;;;;;;;2.87;1.37;;;16.60;99.90;;;;;;6277745;22;20205;-75
2021/09/01 02:45:17;;;;;;;3.73;1.53;;;16.60;99.90;;;;;;6277713;22;20492;-74
2021/09/01 02:47:44;;;;;;;4.53;1.13;;;16.70;99.90;;;;;;6277513;22;20179;-73
2021/09/01 02:50:12;;;;;;;7.43;1.50;;;16.70;99.90;;;;;;6277876;22;20186;-74
2021/09/01 02:52:40;;;;;;;3.93;1.40;;;16.70;99.90;;;;;;6277934;22;20194;-75
2021/09/01 02:55:08;;;;;;;7.70;1.87;;;16.70;99.90;;;;;;6277742;22;20179;-73
2021/09/01 02:57:34;;;;;;;3.67;1.50;;;16.80;99.90;;;;;;6277784;22;20206;-74
2021/09/01 03:00:01;;;;;;;5.43;1.47;;;16.70;99.90;;;;;;6277825;22;20175;-76
2021/09/01 03:02:28;;;;;;;5.80;1.47;;;16.70;99.90;;;;;;6277679;22;20209;-74
2021/09/01 03:04:55;;;;;;;2.80;1.20;;;16.90;99.90;;;;;;6277537;22;20505;-74
2021/09/01 03:07:22;;;;;;;4.20;1.07;;;17.00;99.90;;;;;;6277360;22;20269;-74
2021/09/01 03:09:50;;;;;;;8.10;1.50;;;17.00;99.90;;;;;;6277941;22;20175;-74
2021/09/01 03:12:17;;;;;;;3.70;1.30;;;16.80;99.90;;;;;;6277364;22;20634;-74
2021/09/01 03:14:43;;;;;;;4.77;1.37;;;16.80;99.90;;;;;;6277884;22;20175;-74
2021/09/01 03:17:10;;;;;;;2.47;1.10;;;16.80;99.90;;;;;;6277515;22;20205;-74
2021/09/01 03:19:37;;;;;;;4.03;1.23;;;16.80;99.90;;;;;;6277759;22;20175;-75
2021/09/01 03:22:04;;;;;;;3.13;1.33;;;16.70;99.90;;;;;;6277528;22;20174;-74
2021/09/01 03:24:31;;;;;;;5.20;1.40;;;16.80;99.90;;;;;;6277812;22;20181;-74
2021/09/01 03:26:59;;;;;;;3.73;1.20;;;16.90;99.90;;;;;;6277358;22;20237;-74
2021/09/01 03:29:29;;;;;;;7.20;1.40;;;16.90;99.90;;;;;;6277590;22;20244;-74
2021/09/01 03:31:56;;;;;;;6.60;1.80;;;17.00;99.90;;;;;;6277031;22;20234;-73
2021/09/01 03:34:23;;;;;;;1.93;1.20;;;17.00;99.90;;;;;;6277324;22;20195;-74
2021/09/01 03:36:50;;;;;;;6.13;1.40;;;17.10;99.90;;;;;;6276948;22;20700;-73
2021/09/01 03:39:16;;;;;;;2.47;1.40;;;17.30;99.90;;;;;;6277544;22;20175;-74
2021/09/01 03:41:43;;;;;;;6.40;1.57;;;17.40;99.90;;;;;;6277144;22;20224;-73
2021/09/01 03:44:11;;;;;;;7.70;1.60;;;17.20;99.90;;;;;;6277425;22;20591;-75
2021/09/01 03:46:38;;;;;;;4.40;1.50;;;17.20;99.90;;;;;;6277046;22;20181;-73
2021/09/01 03:49:05;;;;;;;4.97;1.20;;;17.20;99.90;;;;;;6277398;22;20191;-75
2021/09/01 03:51:32;;;;;;;4.30;1.30;;;17.10;99.90;;;;;;6277540;22;20263;-75
2021/09/01 03:53:59;;;;;;;5.80;1.47;;;17.10;99.90;;;;;;6277359;22;20199;-73
2021/09/01 03:56:25;;;;;;;6.57;1.40;;;16.90;99.90;;;;;;6277089;22;20182;-74
2021/09/01 03:58:52;;;;;;;4.50;1.50;;;16.90;99.90;;;;;;6277213;22;20289;-74
2021/09/01 04:01:20;;;;;;;3.70;1.23;;;17.10;99.90;;;;;;6277595;22;20181;-73
2021/09/01 04:03:47;;;;;;;5.23;1.87;;;17.10;99.90;;;;;;6277358;22;20195;-74
2021/09/01 04:06:14;;;;;;;6.80;1.40;;;16.90;99.90;;;;;;6276708;22;20182;-74
2021/09/01 04:08:41;;;;;;;4.73;1.33;;;16.90;99.90;;;;;;6277072;22;20277;-74
2021/09/01 04:11:07;;;;;;;4.67;1.40;;;16.90;99.90;;;;;;6277183;22;20174;-74
2021/09/01 04:13:34;;;;;;;3.63;1.40;;;16.70;99.90;;;;;;6277106;22;20195;-74
2021/09/01 04:16:01;;;;;;;3.40;1.37;;;16.80;99.90;;;;;;6277161;22;20179;-74
2021/09/01 04:18:29;;;;;;;4.97;1.50;;;16.90;99.90;;;;;;6277113;22;20210;-74
2021/09/01 04:20:56;;;;;;;6.63;1.50;;;16.90;99.90;;;;;;6276722;22;20185;-73
2021/09/01 04:23:23;;;;;;;5.30;1.50;;;16.60;99.90;;;;;;6276720;22;20194;-73
2021/09/01 04:25:50;;;;;;;2.67;1.43;;;16.40;99.90;;;;;;6276908;22;20257;-74
2021/09/01 04:28:17;;;;;;;4.03;1.10;;;16.40;99.90;;;;;;6276710;22;20254;-73
2021/09/01 04:30:44;;;;;;;6.43;1.30;;;16.50;99.90;;;;;;6276605;22;20261;-74
2021/09/01 04:33:10;;;;;;;3.90;1.27;;;16.40;99.90;;;;;;6276645;22;20195;-74
2021/09/01 04:35:39;;;;;;;4.47;1.27;;;16.40;99.90;;;;;;6276753;22;20179;-74
2021/09/01 04:38:06;;;;;;;4.90;1.27;;;16.40;99.90;;;;;;6276312;22;20213;-73
2021/09/01 04:40:33;;;;;;;5.37;1.60;;;16.50;99.90;;;;;;6276541;22;20174;-74
2021/09/01 04:43:00;;;;;;;5.13;1.27;;;16.60;99.90;;;;;;6276631;22;20203;-74
2021/09/01 04:45:27;;;;;;;5.87;1.57;;;16.60;99.90;;;;;;6276849;22;20261;-73
2021/09/01 04:47:54;;;;;;;5.40;1.70;;;16.70;99.90;;;;;;6276616;22;20664;-73
2021/09/01 04:50:20;;;;;;;3.67;1.33;;;16.50;99.90;;;;;;6276850;22;20181;-74
2021/09/01 04:52:49;;;;;;;2.97;1.30;;;16.40;99.90;;;;;;6276600;22;20201;-73
2021/09/01 04:55:17;;;;;;;5.67;1.40;;;16.50;99.90;;;;;;6276755;22;20213;-75
2021/09/01 04:57:44;;;;;;;3.30;1.20;;;16.50;99.90;;;;;;6276654;22;20277;-74
2021/09/01 05:00:12;;;;;;;4.47;1.37;;;16.40;99.90;;;;;;6276720;22;20262;-74
2021/09/01 05:02:39;;;;;;;5.37;1.50;;;16.50;99.90;;;;;;6276185;22;20199;-75
2021/09/01 05:05:07;;;;;;;4.00;1.30;;;16.50;99.90;;;;;;6277604;22;20181;-74
2021/09/01 05:07:34;;;;;;;4.87;1.40;;;16.60;99.90;;;;;;6276507;22;20189;-75
2021/09/01 05:10:03;;;;;;;5.57;1.43;;;16.50;99.90;;;;;;6277484;22;20182;-74
2021/09/01 05:12:29;;;;;;;4.17;1.57;;;16.40;99.90;;;;;;6277063;22;20226;-74
2021/09/01 05:14:57;;;;;;;2.80;1.20;;;16.50;99.90;;;;;;6276423;22;20688;-75
2021/09/01 05:17:24;;;;;;;4.90;1.37;;;16.50;99.90;;;;;;6276389;22;20181;-75
2021/09/01 05:19:51;;;;;;;5.43;1.33;;;16.50;99.90;;;;;;6276920;22;20175;-74
2021/09/01 05:22:21;;;;;;;5.70;1.67;;;16.40;99.90;;;;;;6276039;22;20179;-75
2021/09/01 05:24:58;;;;;;;5.30;1.33;;;16.70;99.90;;;;;;6276622;22;20240;-74
2021/09/01 05:27:28;;;;;;;3.63;1.20;;;16.80;99.90;;;;;;6276698;22;20180;-74
2021/09/01 05:29:55;;;;;;;7.03;1.40;;;16.50;99.90;;;;;;6276216;22;20541;-74
2021/09/01 05:32:23;;;;;;;2.17;1.10;;;16.50;99.90;;;;;;6276525;22;20181;-74
2021/09/01 05:34:51;;;;;;;4.27;1.53;;;16.50;99.90;;;;;;6276287;22;20174;-74
2021/09/01 05:37:18;;;;;;;4.80;1.60;;;16.60;99.90;;;;;;6276486;22;20459;-74
2021/09/01 05:39:47;;;;;;;2.97;1.33;;;16.70;99.90;;;;;;6276648;22;20209;-76
2021/09/01 05:42:17;;;;;;;4.27;1.20;;;16.70;99.90;;;;;;6276034;22;20502;-74
2021/09/01 05:44:45;;;;;;;5.10;1.20;;;16.70;99.90;;;;;;6276141;22;20575;-75
2021/09/01 05:47:14;;;;;;;6.47;1.30;;;16.90;99.90;;;;;;6276610;22;20175;-74
2021/09/01 05:49:42;;;;;;;3.43;1.43;;;16.80;99.90;;;;;;6276928;22;20471;-74
2021/09/01 05:52:10;;;;;;;5.57;1.50;;;16.90;99.90;;;;;;6277913;22;20196;-77
2021/09/01 05:54:41;;;;;;;6.73;1.67;;;16.80;99.90;;;;;;6278305;22;20501;-74
2021/09/01 05:57:09;;;;;;;3.80;1.40;;;16.70;99.90;;;;;;6278337;22;20175;-74
2021/09/01 05:59:42;;;;;;;2.67;1.30;;;16.80;99.90;;;;;;6278197;22;20210;-74
2021/09/01 06:02:15;;;;;;;5.40;1.33;;;17.00;99.90;;;;;;6278355;22;20597;-75
2021/09/01 06:04:44;;;;;;;6.37;2.07;;;16.80;99.90;;;;;;6278297;22;20174;-75
2021/09/01 06:07:14;;;;;;;5.53;1.63;;;16.80;99.90;;;;;;6277906;22;20594;-75
2021/09/01 06:09:43;;;;;;;4.40;1.43;;;16.90;99.90;;;;;;6278058;22;20652;-75
2021/09/01 06:12:14;;;;;;;5.80;1.30;;;17.00;99.90;;;;;;6278411;22;20201;-75
2021/09/01 06:14:40;;;;;;;6.30;1.60;;;17.20;99.90;;;;;;6278355;22;20175;-74
2021/09/01 06:17:07;;;;;;;6.37;1.50;;;17.40;99.90;;;;;;6278366;22;20181;-75
2021/09/01 06:19:35;;;;;;;4.07;1.50;;;17.50;99.90;;;;;;6277980;22;20210;-75
2021/09/01 06:22:02;;;;;;;11.07;1.90;;;17.60;99.90;;;;;;6278210;22;20182;-75
2021/09/01 06:24:29;;;;;;;5.50;1.20;;;17.60;99.90;;;;;;6278380;22;20194;-80
2021/09/01 06:26:56;;;;;;;4.17;1.20;;;17.70;99.90;;;;;;6278980;22;20181;-75
2021/09/01 06:29:22;;;;;;;2.80;1.20;;;17.80;99.90;;;;;;6278656;22;20181;-75
2021/09/01 06:31:49;;;;;;;3.73;1.47;;;17.70;99.90;;;;;;6278290;22;20202;-75
2021/09/01 06:34:16;;;;;;;6.70;1.17;;;17.60;99.90;;;;;;6278087;22;20201;-76
2021/09/01 06:36:45;;;;;;;3.50;1.33;;;17.50;99.90;;;;;;6278102;22;20511;-76
2021/09/01 06:39:11;;;;;;;4.37;1.60;;;17.60;99.90;;;;;;6277846;22;20206;-76
2021/09/01 06:41:38;;;;;;;7.03;1.40;;;17.60;99.90;;;;;;6278089;22;20199;-74
2021/09/01 06:44:05;;;;;;;4.83;1.60;;;17.30;99.90;;;;;;6278117;22;20202;-75
2021/09/01 06:46:32;;;;;;;4.03;1.40;;;17.50;99.90;;;;;;6278254;22;20179;-77
2021/09/01 06:48:59;;;;;;;4.03;1.13;;;17.30;99.90;;;;;;6277995;22;20174;-75
2021/09/01 06:51:26;;;;;;;6.73;1.43;;;17.40;99.90;;;;;;6277882;22;20175;-74
2021/09/01 06:53:54;;;;;;;4.70;1.37;;;17.50;99.90;;;;;;6277599;22;20282;-76
2021/09/01 06:56:21;;;;;;;5.47;1.40;;;17.50;99.90;;;;;;6277455;22;20561;-75
2021/09/01 06:58:48;;;;;;;6.53;1.40;;;17.30;99.90;;;;;;6277889;22;20289;-75
2021/09/01 07:01:15;;;;;;;7.33;2.20;;;17.20;99.90;;;;;;6277338;22;20181;-75
2021/09/01 07:03:42;;;;;;;5.47;1.50;;;17.40;99.90;;;;;;6277842;22;20194;-78
2021/09/01 07:06:08;;;;;;;5.40;1.20;;;17.60;99.90;;;;;;6277592;22;20452;-75
2021/09/01 07:08:35;;;;;;;2.90;1.40;;;17.40;99.90;;;;;;6277056;22;20689;-75
2021/09/01 07:11:03;;;;;;;4.47;1.90;;;17.40;99.90;;;;;;6277967;22;20197;-77
2021/09/01 07:13:30;;;;;;;5.63;1.50;;;17.60;99.90;;;;;;6277814;22;20198;-76
2021/09/01 07:15:57;;;;;;;6.33;1.60;;;17.80;99.90;;;;;;6277818;22;20175;-75
2021/09/01 07:18:24;;;;;;;2.37;1.20;;;17.50;99.90;;;;;;6277191;22;20567;-75
2021/09/01 07:20:50;;;;;;;4.83;1.57;;;17.50;99.90;;;;;;6277922;22;20179;-75
2021/09/01 07:23:17;;;;;;;3.87;1.30;;;17.50;99.90;;;;;;6277226;22;20195;-76
2021/09/01 07:25:44;;;;;;;4.30;1.37;;;17.70;99.90;;;;;;6277644;22;20181;-77
2021/09/01 07:28:12;;;;;;;1.93;1.00;;;17.70;99.90;;;;;;6277268;22;20179;-75
2021/09/01 07:30:39;;;;;;;2.37;1.20;;;17.60;99.90;;;;;;6277407;22;20257;-75
2021/09/01 07:33:06;;;;;;;5.73;1.70;;;17.60;99.90;;;;;;6276964;22;20700;-76
2021/09/01 07:35:33;;;;;;;4.43;1.23;;;17.60;99.90;;;;;;6277331;22;20181;-75
2021/09/01 07:37:59;;;;;;;5.40;1.70;;;17.60;99.90;;;;;;6276914;22;20185;-74
2021/09/01 07:40:27;;;;;;;4.00;1.33;;;17.70;99.90;;;;;;6276814;22;20301;-75
2021/09/01 07:42:55;;;;;;;6.13;1.73;;;17.90;99.90;;;;;;6276611;22;20194;-76
2021/09/01 07:45:24;;;;;;;7.00;1.90;;;18.10;99.90;;;;;;6277633;22;20179;-75
2021/09/01 07:47:54;;;;;;;2.53;1.43;;;18.20;99.90;;;;;;6277445;22;20175;-75
2021/09/01 07:50:23;;;;;;;5.07;1.57;;;18.00;99.90;;;;;;6277214;22;20175;-75
2021/09/01 07:52:50;;;;;;;3.20;1.60;;;18.20;99.90;;;;;;6276557;22;20201;-75
2021/09/01 07:55:17;;;;;;;4.70;1.10;;;18.20;99.90;;;;;;6277460;22;20175;-74
2021/09/01 07:57:44;;;;;;;4.20;1.60;;;18.10;99.90;;;;;;6276973;22;20644;-76
2021/09/01 08:00:13;;;;;;;2.57;1.13;;;18.20;99.90;;;;;;6277363;22;20206;-75
2021/09/01 08:02:41;;;;;;;6.80;1.13;;;18.20;99.90;;;;;;6277584;22;20193;-74
2021/09/01 08:05:09;;;;;;;2.87;1.33;;;18.40;99.90;;;;;;6277222;22;20174;-75
2021/09/01 08:07:37;;;;;;;5.10;1.93;;;18.50;99.90;;;;;;6276629;22;20518;-75
2021/09/01 08:10:05;;;;;;;2.93;1.30;;;18.70;99.90;;;;;;6277130;22;20213;-75
2021/09/01 08:12:32;;;;;;;2.37;1.10;;;18.60;99.90;;;;;;6276735;22;20199;-76
2021/09/01 08:14:59;;;;;;;2.70;1.13;;;18.50;99.90;;;;;;6276975;22;20262;-75
2021/09/01 08:17:26;;;;;;;5.70;1.50;;;18.50;99.90;;;;;;6276775;22;20179;-76
2021/09/01 08:19:54;;;;;;;6.73;1.63;;;18.60;99.90;;;;;;6277031;22;20242;-74
2021/09/01 08:22:21;;;;;;;4.22;1.67;;;18.50;99.90;;;;;;6276881;22;20179;-75
2021/09/01 08:24:48;;;;;;;5.55;1.50;;;18.70;99.90;;;;;;6276943;22;20181;-74
2021/09/01 08:27:15;;;;;;;6.55;1.40;;;18.70;99.90;;;;;;6277255;22;20261;-74
2021/09/01 08:29:42;;;;;;;2.90;1.25;;;18.90;99.90;;;;;;6277199;22;20181;-75
2021/09/01 08:32:10;;;;;;;4.53;1.33;;;18.80;99.90;;;;;;6276914;22;20179;-74
2021/09/01 08:34:37;;;;;;;3.63;1.38;;;18.70;99.90;;;;;;6276735;22;20185;-75
2021/09/01 08:37:06;;;;;;;3.70;1.35;;;18.70;99.90;;;;;;6276372;22;20179;-74
2021/09/01 08:39:33;;;;;;;4.95;1.65;;;18.50;99.90;;;;;;6276921;22;20207;-75
2021/09/01 08:42:01;;;;;;;5.20;1.35;;;18.30;99.90;;;;;;6276707;22;20185;-75
2021/09/01 08:44:27;;;;;;;5.68;1.70;;;18.50;99.90;;;;;;6276834;22;20195;-74
2021/09/01 08:46:57;;;;;;;4.32;1.55;;;18.70;99.90;;;;;;6276732;22;20257;-74
2021/09/01 08:49:26;;;;;;;4.38;1.40;;;18.40;99.90;;;;;;6276395;22;20175;-74
2021/09/01 08:51:53;;;;;;;5.05;1.50;;;18.50;99.90;;;;;;6276522;22;20179;-75
2021/09/01 08:54:21;;;;;;;5.03;1.50;;;18.40;99.90;;;;;;6276780;22;20201;-74
2021/09/01 08:56:48;;;;;;;3.33;2.00;;;18.40;99.90;;;;;;6276860;22;20175;-76
2021/09/01 08:59:15;;;;;;;3.63;1.30;;;18.30;99.90;;;;;;6276411;22;20206;-75
2021/09/01 09:01:43;;;;;;;6.13;1.37;;;18.40;99.90;;;;;;6276926;22;20183;-74
2021/09/01 09:04:19;;;;;;;4.45;1.10;;;18.50;99.90;;;;;;6276386;22;20195;-74
2021/09/01 09:06:48;;;;;;;3.87;1.57;;;18.70;99.90;;;;;;6276111;22;20506;-75
2021/09/01 09:09:16;;;;;;;5.90;2.03;;;18.80;99.90;;;;;;6276664;22;20505;-76
2021/09/01 09:11:45;;;;;;;2.20;1.33;;;18.80;99.90;;;;;;6276363;22;20261;-74
2021/09/01 09:14:24;;;;;;;6.72;2.00;;;19.00;99.90;;;;;;6276638;22;20199;-74
2021/09/01 09:17:06;;;;;;;2.78;1.23;;;19.20;99.90;;;;;;6276496;22;20197;-75
2021/09/01 09:19:48;;;;;;;6.18;1.40;;;19.40;99.90;;;;;;6276544;22;20301;-75
2021/09/01 09:22:19;;;;;;;3.05;1.15;;;19.10;99.90;;;;;;6276552;22;20175;-74
2021/09/01 09:25:18;;;;;;;6.78;1.63;;;19.20;99.90;;;;;;6276629;22;20175;-75
2021/09/01 09:27:48;;;;;;;5.30;1.42;;;19.20;99.90;;;;;;6273215;22;20217;-75
2021/09/01 09:30:26;;;;;;;1.85;1.30;;;19.20;99.90;;;;;;6276387;22;20250;-75
2021/09/01 09:32:55;;;;;;;3.05;1.20;;;19.30;99.90;;;;;;6276332;22;20201;-74
2021/09/01 09:35:23;;;;;;;2.88;1.30;;;19.60;99.90;;;;;;6276486;22;20179;-74
2021/09/01 09:38:01;;;;;;;4.15;1.20;;;19.60;99.90;;;;;;6276674;22;20502;-77
2021/09/01 09:40:29;;;;;;;3.85;1.23;;;19.70;99.90;;;;;;6276229;22;20207;-75
2021/09/01 09:42:57;;;;;;;3.22;1.38;;;19.50;99.90;;;;;;6276525;22;20195;-75
2021/09/01 09:45:26;;;;;;;2.05;1.05;;;19.60;99.90;;;;;;6275976;22;20744;-75
2021/09/01 09:47:56;;;;;;;3.75;1.20;;;19.60;99.90;;;;;;6276518;22;20181;-74
2021/09/01 09:50:24;;;;;;;3.10;1.08;;;19.70;99.90;;;;;;6276638;22;20174;-75
2021/09/01 09:52:51;;;;;;;4.40;1.33;;;19.70;99.90;;;;;;6276379;22;20201;-75
2021/09/01 09:55:20;;;;;;;3.58;1.23;;;19.80;99.90;;;;;;6276423;22;20179;-77
2021/09/01 09:57:49;;;;;;;3.88;1.23;;;20.10;99.90;;;;;;6276489;22;20266;-74
2021/09/01 10:00:18;;;;;;;2.83;1.40;;;20.20;99.90;;;;;;6276344;22;20213;-76
2021/09/01 10:02:46;;;;;;;6.07;1.42;;;20.30;99.90;;;;;;6275960;22;20521;-75
2021/09/01 10:05:15;;;;;;;2.85;1.38;;;20.00;99.90;;;;;;6276291;22;20175;-77
2021/09/01 10:07:43;;;;;;;3.28;1.30;;;19.60;99.90;;;;;;6275740;22;20507;-75
2021/09/01 10:10:11;;;;;;;3.60;1.20;;;19.70;99.90;;;;;;6276469;22;20640;-74
2021/09/01 10:12:39;;;;;;;3.33;1.75;;;20.00;99.90;;;;;;6276410;22;20195;-75
2021/09/01 10:15:10;;;;;;;5.13;1.48;;;20.10;99.90;;;;;;6276134;22;20625;-75
2021/09/01 10:17:41;;;;;;;4.25;1.92;;;20.20;99.90;;;;;;6276360;22;20509;-75
2021/09/01 10:20:11;;;;;;;3.03;1.27;;;20.60;99.90;;;;;;6276457;22;20293;-74
2021/09/01 10:22:38;;;;;;;4.93;1.65;;;20.90;99.90;;;;;;6277199;22;20195;-78
2021/09/01 10:25:06;;;;;;;4.45;1.50;;;21.10;99.90;;;;;;6276507;22;20175;-74
2021/09/01 10:27:33;;;;;;;2.30;1.40;;;21.30;99.90;;;;;;6276445;22;20174;-75
2021/09/01 10:30:06;;;;;;;2.88;1.38;;;21.30;99.90;;;;;;6276046;22;20262;-75
2021/09/01 10:32:41;;;;;;;1.48;1.10;;;21.20;99.90;;;;;;6275517;22;20198;-76
2021/09/01 10:35:32;;;;;;;4.80;1.17;;;21.20;99.90;;;;;;6275886;22;20222;-75
2021/09/01 10:38:04;;;;;;;5.43;1.63;;;21.20;99.90;;;;;;6276819;22;20501;-75
2021/09/01 10:41:05;;;;;;;5.35;1.70;;;21.00;99.90;;;;;;6278263;22;20202;-75
2021/09/01 10:43:32;;;;;;;4.18;1.60;;;20.80;99.90;;;;;;6277986;22;20521;-77
2021/09/01 10:45:59;;;;;;;3.67;1.67;;;20.70;99.90;;;;;;6278106;22;20179;-77
2021/09/01 10:48:26;;;;;;;3.63;2.08;;;20.40;99.90;;;;;;6278326;22;20185;-74
2021/09/01 10:50:56;;;;;;;4.05;1.52;;;20.30;99.90;;;;;;6278000;22;20197;-82
2021/09/01 10:53:25;;;;;;;3.67;1.63;;;20.10;99.90;;;;;;6277918;22;20234;-81
2021/09/01 10:55:59;;;;;;;3.50;1.38;;;20.30;99.90;;;;;;6277776;22;20498;-77
2021/09/01 10:58:33;;;;;;;7.30;1.90;;;20.30;99.90;;;;;;6277514;22;20647;-77
2021/09/01 11:01:05;;;;;;;4.00;1.52;;;20.20;99.90;;;;;;6277582;22;20202;-75
2021/09/01 11:03:35;;;;;;;5.68;1.50;;;20.00;99.90;;;;;;6278094;22;20198;-76
2021/09/01 11:06:17;;;;;;;5.25;1.92;;;20.10;99.90;;;;;;6277709;22;20198;-75
2021/09/01 11:08:58;;;;;;;3.50;1.77;;;20.10;99.90;;;;;;6277511;22;20204;-75
2021/09/01 11:11:37;;;;;;;3.67;1.63;;;20.20;99.90;;;;;;6278123;22;20174;-75
2021/09/01 11:14:03;;;;;;;4.70;1.60;;;20.30;99.90;;;;;;6277638;22;20677;-76
2021/09/01 11:16:30;;;;;;;3.80;1.35;;;20.40;99.90;;;;;;6277671;22;20175;-74
2021/09/01 11:19:02;;;;;;;4.03;1.63;;;20.50;99.90;;;;;;6278048;22;20181;-74
2021/09/01 11:21:30;;;;;;;5.85;1.60;;;20.40;99.90;;;;;;6277329;22;20260;-75
2021/09/01 11:23:59;;;;;;;4.18;1.67;;;20.10;99.90;;;;;;6277169;22;20198;-77
2021/09/01 11:26:30;;;;;;;5.57;1.38;;;20.10;99.90;;;;;;6277285;22;20636;-75
2021/09/01 11:28:57;;;;;;;2.40;1.58;;;20.20;99.90;;;;;;6277535;22;20557;-73
2021/09/01 11:31:24;;;;;;;2.85;1.27;;;20.30;99.90;;;;;;6277697;22;20183;-74
2021/09/01 11:33:54;;;;;;;3.78;1.63;;;20.60;99.90;;;;;;6277341;22;20199;-75
2021/09/01 11:36:23;;;;;;;2.90;1.48;;;20.80;99.90;;;;;;6277157;22;20648;-75
2021/09/01 11:38:51;;;;;;;3.45;1.88;;;20.70;99.90;;;;;;6277140;22;20175;-76
2021/09/01 11:41:22;;;;;;;4.05;1.50;;;20.70;99.90;;;;;;6277743;22;20207;-82
2021/09/01 11:43:56;;;;;;;4.00;1.50;;;20.90;99.90;;;;;;6277336;22;20680;-80
2021/09/01 11:46:22;;;;;;;3.42;1.60;;;21.10;99.90;;;;;;6277539;22;20179;-75
2021/09/01 11:48:49;;;;;;;2.28;1.30;;;21.20;99.90;;;;;;6277065;22;20174;-78
2021/09/01 11:51:21;;;;;;;4.03;1.60;;;21.30;99.90;;;;;;6277519;22;20175;-75
2021/09/01 11:53:48;;;;;;;2.97;1.75;;;21.00;99.90;;;;;;6277307;22;20198;-74
2021/09/01 11:56:16;;;;;;;2.78;1.48;;;21.10;99.90;;;;;;6277109;22;20175;-81
2021/09/01 11:58:55;;;;;;;6.50;1.65;;;21.10;99.90;;;;;;6273745;22;20175;-75
2021/09/01 12:01:22;;;;;;;3.42;1.50;;;21.10;99.90;;;;;;6275999;22;20232;-75
2021/09/01 12:03:49;;;;;;;4.20;1.42;;;21.30;99.90;;;;;;6276156;22;20194;-79
2021/09/01 12:06:16;;;;;;;5.40;1.90;;;21.20;99.90;;;;;;6276154;22;20182;-73
2021/09/01 12:08:45;;;;;;;2.70;1.48;;;21.10;99.90;;;;;;6275000;22;20178;-76
2021/09/01 12:11:13;;;;;;;3.75;1.58;;;21.20;99.90;;;;;;6275865;22;20257;-74
2021/09/01 12:13:43;;;;;;;5.25;1.50;;;21.30;99.90;;;;;;6274751;22;20685;-76
2021/09/01 12:16:10;;;;;;;4.43;1.65;;;21.40;99.90;;;;;;6274962;22;20261;-75
2021/09/01 12:18:50;;;;;;;3.40;1.42;;;21.40;99.90;;;;;;6275251;22;20266;-74
2021/09/01 12:21:18;;;;;;;4.68;1.45;;;21.00;99.90;;;;;;6275758;22;20603;-75
2021/09/01 12:23:45;;;;;;;3.40;1.52;;;21.10;99.90;;;;;;6276572;22;20233;-73
2021/09/01 12:26:17;;;;;;;3.55;1.65;;;21.20;99.90;;;;;;6276745;22;20175;-75
2021/09/01 12:28:47;;;;;;;3.65;1.33;;;21.30;99.90;;;;;;6276652;22;20175;-73
2021/09/01 12:31:22;;;;;;;2.42;1.33;;;21.10;99.90;;;;;;6276692;22;20174;-73
2021/09/01 12:33:49;;;;;;;3.35;1.45;;;20.90;99.90;;;;;;6276031;22;20229;-73
2021/09/01 12:36:25;;;;;;;3.33;1.52;;;20.80;99.90;;;;;;6276225;22;20825;-73
2021/09/01 12:38:53;;;;;;;3.75;1.65;;;21.10;99.90;;;;;;6276757;22;20180;-75
2021/09/01 12:41:20;;;;;;;2.88;1.40;;;21.30;99.90;;;;;;6275959;22;20252;-73
2021/09/01 12:43:57;;;;;;;3.35;1.20;;;21.20;99.90;;;;;;6274545;22;20245;-73
2021/09/01 12:46:23;;;;;;;3.95;1.92;;;21.00;99.90;;;;;;6276419;22;20181;-72
2021/09/01 12:48:51;;;;;;;3.72;1.70;;;21.20;99.90;;;;;;6276283;22;20175;-72
2021/09/01 12:51:17;;;;;;;3.88;1.30;;;21.20;99.90;;;;;;6276570;22;20185;-74
2021/09/01 12:53:44;;;;;;;4.50;1.70;;;21.00;99.90;;;;;;6276085;22;20194;-73